sensor_id;sensor_type;location;lat;lon;timestamp;pressure;altitude;pressure_sealevel;temperature;humidity
42603;BME280;28233;55.748;48.752;2022-09-27T00:00:37;99017.81;;;8.55;100.00
42603;BME280;28233;55.748;48.752;2022-09-27T00:02:40;99018.94;;;8.54;100.00
42603;BME280;28233;55.748;48.752;2022-09-27T00:04:42;99014.09;;;8.51;100.00
42603;BME280;28233;55.748;48.752;2022-09-27T00:06:45;99021.19;;;8.52;100.00
42603;BME280;28233;55.748;48.752;2022-09-27T00:08:48;99017.50;;;8.56;100.00
42603;BME280;28233;55.748;48.752;2022-09-27T00:10:58;99024.56;;;8.57;100.00
42603;BME280;28233;55.748;48.752;2022-09-27T00:13:00;99019.09;;;8.57;100.00
42603;BME280;28233;55.748;48.752;2022-09-27T00:15:05;99024.88;;;8.56;100.00
42603;BME280;28233;55.748;48.752;2022-09-27T00:17:08;99016.66;;;8.56;100.00
42603;BME280;28233;55.748;48.752;2022-09-27T00:19:18;99035.38;;;8.54;100.00
42603;BME280;28233;55.748;48.752;2022-09-27T00:21:21;99041.31;;;8.56;100.00
42603;BME280;28233;55.748;48.752;2022-09-27T00:23:24;99026.03;;;8.55;100.00
42603;BME280;28233;55.748;48.752;2022-09-27T00:25:26;99026.03;;;8.55;100.00
42603;BME280;28233;55.748;48.752;2022-09-27T00:27:29;99029.56;;;8.55;100.00
42603;BME280;28233;55.748;48.752;2022-09-27T00:29:31;99029.25;;;8.57;100.00
42603;BME280;28233;55.748;48.752;2022-09-27T00:31:34;99030.84;;;8.58;100.00
42603;BME280;28233;55.748;48.752;2022-09-27T00:33:37;99032.47;;;8.59;100.00
42603;BME280;28233;55.748;48.752;2022-09-27T00:35:40;99042.59;;;8.58;100.00
42603;BME280;28233;55.748;48.752;2022-09-27T00:37:42;99051.97;;;8.57;100.00
42603;BME280;28233;55.748;48.752;2022-09-27T00:39:45;99053.56;;;8.50;100.00
42603;BME280;28233;55.748;48.752;2022-09-27T00:41:48;99054.50;;;8.45;100.00
42603;BME280;28233;55.748;48.752;2022-09-27T00:43:53;99058.22;;;8.40;100.00
42603;BME280;28233;55.748;48.752;2022-09-27T00:45:59;99052.53;;;8.37;100.00
42603;BME280;28233;55.748;48.752;2022-09-27T00:48:04;99049.13;;;8.31;100.00
42603;BME280;28233;55.748;48.752;2022-09-27T00:50:21;99054.91;;;8.30;100.00
42603;BME280;28233;55.748;48.752;2022-09-27T00:52:39;99053.81;;;8.31;100.00
42603;BME280;28233;55.748;48.752;2022-09-27T00:54:46;99056.22;;;8.32;100.00
42603;BME280;28233;55.748;48.752;2022-09-27T00:56:52;99062.19;;;8.34;100.00
42603;BME280;28233;55.748;48.752;2022-09-27T00:59:01;99058.34;;;8.35;100.00
42603;BME280;28233;55.748;48.752;2022-09-27T01:01:06;99059.78;;;8.33;100.00
42603;BME280;28233;55.748;48.752;2022-09-27T01:03:17;99053.47;;;8.23;100.00
42603;BME280;28233;55.748;48.752;2022-09-27T01:05:23;99064.91;;;8.34;100.00
42603;BME280;28233;55.748;48.752;2022-09-27T01:07:27;99066.22;;;8.37;100.00
42603;BME280;28233;55.748;48.752;2022-09-27T01:09:30;99062.03;;;8.39;100.00
42603;BME280;28233;55.748;48.752;2022-09-27T01:14:10;99066.44;;;8.49;100.00
42603;BME280;28233;55.748;48.752;2022-09-27T01:16:31;99068.84;;;8.51;100.00
42603;BME280;28233;55.748;48.752;2022-09-27T01:19:07;99074.31;;;8.51;100.00
42603;BME280;28233;55.748;48.752;2022-09-27T01:30:26;99080.03;;;8.32;100.00
42603;BME280;28233;55.748;48.752;2022-09-27T01:32:35;99082.94;;;8.26;100.00
42603;BME280;28233;55.748;48.752;2022-09-27T01:34:46;99090.16;;;8.22;100.00
42603;BME280;28233;55.748;48.752;2022-09-27T01:37:20;99081.78;;;8.19;100.00
42603;BME280;28233;55.748;48.752;2022-09-27T01:42:01;99093.34;;;8.16;100.00
42603;BME280;28233;55.748;48.752;2022-09-27T01:44:15;99095.28;;;8.15;100.00
42603;BME280;28233;55.748;48.752;2022-09-27T01:46:25;99100.75;;;8.15;100.00
42603;BME280;28233;55.748;48.752;2022-09-27T01:48:40;99107.22;;;8.19;100.00
42603;BME280;28233;55.748;48.752;2022-09-27T01:50:52;99108.03;;;8.20;100.00
42603;BME280;28233;55.748;48.752;2022-09-27T01:52:57;99110.75;;;8.20;100.00
42603;BME280;28233;55.748;48.752;2022-09-27T01:55:05;99113.00;;;8.18;100.00
42603;BME280;28233;55.748;48.752;2022-09-27T01:57:11;99105.63;;;8.18;100.00
42603;BME280;28233;55.748;48.752;2022-09-27T01:59:25;99103.69;;;8.19;100.00
42603;BME280;28233;55.748;48.752;2022-09-27T02:01:32;99112.06;;;8.22;100.00
42603;BME280;28233;55.748;48.752;2022-09-27T02:03:42;99115.94;;;8.21;100.00
42603;BME280;28233;55.748;48.752;2022-09-27T02:05:51;99120.25;;;8.22;100.00
42603;BME280;28233;55.748;48.752;2022-09-27T02:07:59;99107.03;;;8.16;100.00
42603;BME280;28233;55.748;48.752;2022-09-27T02:10:11;99124.00;;;8.26;100.00
42603;BME280;28233;55.748;48.752;2022-09-27T02:12:22;99132.69;;;8.29;100.00
42603;BME280;28233;55.748;48.752;2022-09-27T02:14:56;99136.72;;;8.31;100.00
42603;BME280;28233;55.748;48.752;2022-09-27T02:17:11;99130.75;;;8.29;100.00
42603;BME280;28233;55.748;48.752;2022-09-27T02:21:36;99141.25;;;8.36;100.00
42603;BME280;28233;55.748;48.752;2022-09-27T02:23:49;99139.81;;;8.38;100.00
42603;BME280;28233;55.748;48.752;2022-09-27T02:25:59;99152.38;;;8.39;100.00
42603;BME280;28233;55.748;48.752;2022-09-27T02:29:06;99149.03;;;8.42;100.00
42603;BME280;28233;55.748;48.752;2022-09-27T02:30:48;99145.81;;;8.40;100.00
42603;BME280;28233;55.748;48.752;2022-09-27T02:32:51;99152.88;;;8.41;99.92
42603;BME280;28233;55.748;48.752;2022-09-27T02:34:56;99149.03;;;8.42;100.00
42603;BME280;28233;55.748;48.752;2022-09-27T02:37:00;99149.34;;;8.41;100.00
42603;BME280;28233;55.748;48.752;2022-09-27T02:39:03;99159.34;;;8.45;99.73
42603;BME280;28233;55.748;48.752;2022-09-27T02:41:18;99162.28;;;8.49;100.00
42603;BME280;28233;55.748;48.752;2022-09-27T02:43:23;99164.19;;;8.49;100.00
42603;BME280;28233;55.748;48.752;2022-09-27T02:45:47;99159.22;;;8.51;100.00
42603;BME280;28233;55.748;48.752;2022-09-27T02:52:38;99174.50;;;8.43;100.00
42603;BME280;28233;55.748;48.752;2022-09-27T03:01:46;99169.50;;;8.45;100.00
42603;BME280;28233;55.748;48.752;2022-09-27T03:06:10;99178.53;;;8.45;100.00
42603;BME280;28233;55.748;48.752;2022-09-27T03:08:15;99180.63;;;8.49;100.00
42603;BME280;28233;55.748;48.752;2022-09-27T03:10:22;99188.22;;;8.52;100.00
42603;BME280;28233;55.748;48.752;2022-09-27T03:12:25;99187.38;;;8.51;100.00
42603;BME280;28233;55.748;48.752;2022-09-27T03:14:28;99193.38;;;8.53;100.00
42603;BME280;28233;55.748;48.752;2022-09-27T03:16:30;99184.66;;;8.51;100.00
42603;BME280;28233;55.748;48.752;2022-09-27T03:18:33;99188.72;;;8.54;100.00
42603;BME280;28233;55.748;48.752;2022-09-27T03:20:36;99194.03;;;8.59;100.00
42603;BME280;28233;55.748;48.752;2022-09-27T03:22:38;99202.56;;;8.57;100.00
42603;BME280;28233;55.748;48.752;2022-09-27T03:24:42;99202.25;;;8.59;100.00
42603;BME280;28233;55.748;48.752;2022-09-27T03:26:44;99201.44;;;8.58;100.00
42603;BME280;28233;55.748;48.752;2022-09-27T03:28:47;99207.09;;;8.62;100.00
42603;BME280;28233;55.748;48.752;2022-09-27T03:30:50;99214.50;;;8.61;100.00
42603;BME280;28233;55.748;48.752;2022-09-27T03:32:53;99210.97;;;8.61;100.00
42603;BME280;28233;55.748;48.752;2022-09-27T03:34:56;99216.44;;;8.61;99.83
42603;BME280;28233;55.748;48.752;2022-09-27T03:36:59;99206.75;;;8.55;100.00
42603;BME280;28233;55.748;48.752;2022-09-27T03:39:01;99214.81;;;8.60;100.00
42603;BME280;28233;55.748;48.752;2022-09-27T03:41:04;99219.81;;;8.58;100.00
42603;BME280;28233;55.748;48.752;2022-09-27T03:43:07;99225.63;;;8.56;100.00
42603;BME280;28233;55.748;48.752;2022-09-27T03:45:10;99219.81;;;8.58;100.00
42603;BME280;28233;55.748;48.752;2022-09-27T03:47:13;99217.84;;;8.58;100.00
42603;BME280;28233;55.748;48.752;2022-09-27T03:49:15;99217.06;;;8.58;100.00
42603;BME280;28233;55.748;48.752;2022-09-27T03:51:18;99216.44;;;8.61;100.00
42603;BME280;28233;55.748;48.752;2022-09-27T03:53:21;99222.72;;;8.61;100.00
42603;BME280;28233;55.748;48.752;2022-09-27T03:55:24;99226.75;;;8.64;100.00
42603;BME280;28233;55.748;48.752;2022-09-27T03:57:27;99223.72;;;8.65;100.00
42603;BME280;28233;55.748;48.752;2022-09-27T03:59:32;99232.72;;;8.66;100.00
42603;BME280;28233;55.748;48.752;2022-09-27T04:01:34;99225.00;;;8.68;100.00
42603;BME280;28233;55.748;48.752;2022-09-27T04:03:39;99224.38;;;8.71;100.00
42603;BME280;28233;55.748;48.752;2022-09-27T04:05:41;99233.25;;;8.77;100.00
42603;BME280;28233;55.748;48.752;2022-09-27T04:07:48;99231.00;;;8.79;100.00
42603;BME280;28233;55.748;48.752;2022-09-27T04:09:51;99240.38;;;8.86;100.00
42603;BME280;28233;55.748;48.752;2022-09-27T04:11:53;99240.25;;;8.92;100.00
42603;BME280;28233;55.748;48.752;2022-09-27T04:13:56;99243.34;;;8.99;100.00
42603;BME280;28233;55.748;48.752;2022-09-27T04:15:59;99233.66;;;9.01;100.00
42603;BME280;28233;55.748;48.752;2022-09-27T04:18:05;99237.84;;;9.07;99.94
42603;BME280;28233;55.748;48.752;2022-09-27T04:20:10;99236.28;;;9.15;99.81
42603;BME280;28233;55.748;48.752;2022-09-27T04:22:12;99242.41;;;9.21;99.80
42603;BME280;28233;55.748;48.752;2022-09-27T04:24:16;99244.50;;;9.24;99.27
42603;BME280;28233;55.748;48.752;2022-09-27T04:26:19;99249.84;;;9.29;99.14
42603;BME280;28233;55.748;48.752;2022-09-27T04:28:23;99255.19;;;9.34;98.93
42603;BME280;28233;55.748;48.752;2022-09-27T04:30:27;99255.34;;;9.38;98.62
42603;BME280;28233;55.748;48.752;2022-09-27T04:32:30;99252.31;;;9.48;98.28
42603;BME280;28233;55.748;48.752;2022-09-27T04:34:33;99254.25;;;9.56;98.47
42603;BME280;28233;55.748;48.752;2022-09-27T04:36:54;99258.75;;;9.61;97.96
42603;BME280;28233;55.748;48.752;2022-09-27T04:38:59;99266.19;;;9.69;97.30
42603;BME280;28233;55.748;48.752;2022-09-27T04:41:03;99262.63;;;9.77;97.13
42603;BME280;28233;55.748;48.752;2022-09-27T04:43:05;99265.72;;;9.84;96.43
42603;BME280;28233;55.748;48.752;2022-09-27T04:45:08;99258.59;;;9.92;96.10
42603;BME280;28233;55.748;48.752;2022-09-27T04:47:11;99268.59;;;9.97;96.27
42603;BME280;28233;55.748;48.752;2022-09-27T04:49:13;99268.44;;;10.02;96.20
42603;BME280;28233;55.748;48.752;2022-09-27T04:51:19;99272.16;;;10.06;96.10
42603;BME280;28233;55.748;48.752;2022-09-27T04:53:22;99263.75;;;10.11;95.75
42603;BME280;28233;55.748;48.752;2022-09-27T04:55:25;99262.78;;;10.15;95.01
42603;BME280;28233;55.748;48.752;2022-09-27T04:57:28;99267.28;;;10.20;93.99
42603;BME280;28233;55.748;48.752;2022-09-27T04:59:31;99262.63;;;10.29;93.87
42603;BME280;28233;55.748;48.752;2022-09-27T05:01:34;99264.06;;;10.35;93.34
42603;BME280;28233;55.748;48.752;2022-09-27T05:03:37;99268.88;;;10.47;93.12
42603;BME280;28233;55.748;48.752;2022-09-27T05:05:40;99265.31;;;10.55;92.03
42603;BME280;28233;55.748;48.752;2022-09-27T05:07:43;99257.53;;;10.57;90.96
42603;BME280;28233;55.748;48.752;2022-09-27T05:09:45;99272.53;;;10.69;90.02
42603;BME280;28233;55.748;48.752;2022-09-27T05:11:48;99268.50;;;10.75;89.08
42603;BME280;28233;55.748;48.752;2022-09-27T05:13:51;99275.09;;;10.83;87.67
42603;BME280;28233;55.748;48.752;2022-09-27T05:15:54;99268.25;;;10.89;87.04
42603;BME280;28233;55.748;48.752;2022-09-27T05:17:57;99279.56;;;10.96;87.32
42603;BME280;28233;55.748;48.752;2022-09-27T05:20:00;99277.13;;;10.94;86.56
42603;BME280;28233;55.748;48.752;2022-09-27T05:22:05;99271.13;;;11.01;86.58
42603;BME280;28233;55.748;48.752;2022-09-27T05:24:08;99260.94;;;11.02;85.75
42603;BME280;28233;55.748;48.752;2022-09-27T05:26:11;99281.56;;;11.16;85.98
42603;BME280;28233;55.748;48.752;2022-09-27T05:28:14;99292.03;;;11.23;86.07
42603;BME280;28233;55.748;48.752;2022-09-27T05:30:17;99289.25;;;11.32;86.14
42603;BME280;28233;55.748;48.752;2022-09-27T05:32:19;99286.63;;;11.35;85.24
42603;BME280;28233;55.748;48.752;2022-09-27T05:34:22;99292.28;;;11.39;84.45
42603;BME280;28233;55.748;48.752;2022-09-27T05:36:26;99292.41;;;11.42;83.93
42603;BME280;28233;55.748;48.752;2022-09-27T05:38:28;99285.44;;;11.45;83.62
42603;BME280;28233;55.748;48.752;2022-09-27T05:40:31;99296.59;;;11.49;83.88
42603;BME280;28233;55.748;48.752;2022-09-27T05:42:43;99296.38;;;11.54;84.54
42603;BME280;28233;55.748;48.752;2022-09-27T05:44:45;99296.19;;;11.59;84.40
42603;BME280;28233;55.748;48.752;2022-09-27T05:46:48;99301.50;;;11.64;83.66
42603;BME280;28233;55.748;48.752;2022-09-27T05:48:51;99302.91;;;11.70;84.20
42603;BME280;28233;55.748;48.752;2022-09-27T05:50:54;99293.19;;;11.73;84.27
42603;BME280;28233;55.748;48.752;2022-09-27T05:52:57;99299.31;;;11.78;84.64
42603;BME280;28233;55.748;48.752;2022-09-27T05:54:59;99306.88;;;11.81;83.79
42603;BME280;28233;55.748;48.752;2022-09-27T05:57:05;99295.28;;;11.76;83.98
42603;BME280;28233;55.748;48.752;2022-09-27T05:59:09;99311.09;;;11.88;84.36
42603;BME280;28233;55.748;48.752;2022-09-27T06:01:12;99307.66;;;11.91;84.22
42603;BME280;28233;55.748;48.752;2022-09-27T06:03:16;99311.97;;;12.00;84.12
42603;BME280;28233;55.748;48.752;2022-09-27T06:05:19;99305.44;;;12.05;83.34
42603;BME280;28233;55.748;48.752;2022-09-27T06:07:22;99314.44;;;12.14;83.66
42603;BME280;28233;55.748;48.752;2022-09-27T06:09:25;99305.38;;;12.14;83.10
42603;BME280;28233;55.748;48.752;2022-09-27T06:11:29;99313.63;;;12.14;83.55
42603;BME280;28233;55.748;48.752;2022-09-27T06:13:32;99312.28;;;12.20;83.71
42603;BME280;28233;55.748;48.752;2022-09-27T06:15:36;99319.06;;;12.22;83.30
42603;BME280;28233;55.748;48.752;2022-09-27T06:17:40;99309.19;;;12.21;83.14
42603;BME280;28233;55.748;48.752;2022-09-27T06:19:43;99314.97;;;12.29;83.74
42603;BME280;28233;55.748;48.752;2022-09-27T06:21:48;99310.25;;;12.29;83.65
42603;BME280;28233;55.748;48.752;2022-09-27T06:23:52;99316.78;;;12.24;83.04
42603;BME280;28233;55.748;48.752;2022-09-27T06:26:00;99315.50;;;12.22;82.65
42603;BME280;28233;55.748;48.752;2022-09-27T06:28:03;99313.44;;;12.19;82.99
42603;BME280;28233;55.748;48.752;2022-09-27T06:30:07;99313.53;;;12.22;83.05
42603;BME280;28233;55.748;48.752;2022-09-27T06:32:09;99320.22;;;12.21;82.89
42603;BME280;28233;55.748;48.752;2022-09-27T06:34:12;99315.38;;;12.18;82.58
42603;BME280;28233;55.748;48.752;2022-09-27T06:36:15;99317.31;;;12.18;82.28
42603;BME280;28233;55.748;48.752;2022-09-27T06:38:22;99312.97;;;12.17;82.51
42603;BME280;28233;55.748;48.752;2022-09-27T06:40:27;99314.22;;;12.19;82.65
42603;BME280;28233;55.748;48.752;2022-09-27T06:42:31;99312.06;;;12.25;82.82
42603;BME280;28233;55.748;48.752;2022-09-27T06:44:34;99314.75;;;12.34;83.28
42603;BME280;28233;55.748;48.752;2022-09-27T06:46:37;99309.16;;;12.42;83.45
42603;BME280;28233;55.748;48.752;2022-09-27T06:48:41;99324.13;;;12.54;82.61
42603;BME280;28233;55.748;48.752;2022-09-27T06:50:45;99326.53;;;12.55;82.04
42603;BME280;28233;55.748;48.752;2022-09-27T06:52:49;99323.13;;;12.58;81.45
42603;BME280;28233;55.748;48.752;2022-09-27T06:54:52;99315.09;;;12.65;81.99
42603;BME280;28233;55.748;48.752;2022-09-27T06:56:55;99312.47;;;12.81;82.00
42603;BME280;28233;55.748;48.752;2022-09-27T06:59:03;99323.06;;;12.92;80.38
42603;BME280;28233;55.748;48.752;2022-09-27T07:01:28;99316.53;;;12.96;79.84
42603;BME280;28233;55.748;48.752;2022-09-27T07:03:31;99317.22;;;13.05;79.04
42603;BME280;28233;55.748;48.752;2022-09-27T07:05:42;99321.81;;;13.14;78.88
42603;BME280;28233;55.748;48.752;2022-09-27T07:07:44;99330.34;;;13.21;78.23
42603;BME280;28233;55.748;48.752;2022-09-27T07:09:49;99330.72;;;13.31;77.11
42603;BME280;28233;55.748;48.752;2022-09-27T07:11:51;99334.06;;;13.37;76.69
42603;BME280;28233;55.748;48.752;2022-09-27T07:13:56;99341.53;;;13.37;74.73
42603;BME280;28233;55.748;48.752;2022-09-27T07:16:00;99344.53;;;13.44;74.27
42603;BME280;28233;55.748;48.752;2022-09-27T07:18:04;99344.75;;;13.51;72.53
42603;BME280;28233;55.748;48.752;2022-09-27T07:20:07;99346.00;;;13.53;73.50
42603;BME280;28233;55.748;48.752;2022-09-27T07:22:10;99342.91;;;13.55;74.45
42603;BME280;28233;55.748;48.752;2022-09-27T07:24:12;99344.03;;;13.54;75.39
42603;BME280;28233;55.748;48.752;2022-09-27T07:26:15;99352.22;;;13.50;74.21
42603;BME280;28233;55.748;48.752;2022-09-27T07:28:18;99340.94;;;13.56;74.89
42603;BME280;28233;55.748;48.752;2022-09-27T07:30:23;99354.06;;;13.59;75.47
42603;BME280;28233;55.748;48.752;2022-09-27T07:32:26;99346.22;;;13.61;75.06
42603;BME280;28233;55.748;48.752;2022-09-27T07:34:28;99350.00;;;13.68;75.11
42603;BME280;28233;55.748;48.752;2022-09-27T07:36:31;99361.19;;;13.72;74.31
42603;BME280;28233;55.748;48.752;2022-09-27T07:38:35;99365.75;;;13.80;73.31
42603;BME280;28233;55.748;48.752;2022-09-27T07:40:38;99364.38;;;13.86;72.79
42603;BME280;28233;55.748;48.752;2022-09-27T07:42:41;99363.69;;;13.89;72.94
42603;BME280;28233;55.748;48.752;2022-09-27T07:44:44;99370.13;;;13.93;72.38
42603;BME280;28233;55.748;48.752;2022-09-27T07:46:47;99369.31;;;13.93;71.86
42603;BME280;28233;55.748;48.752;2022-09-27T07:48:50;99375.66;;;13.93;72.13
42603;BME280;28233;55.748;48.752;2022-09-27T07:50:53;99373.34;;;13.95;72.17
42603;BME280;28233;55.748;48.752;2022-09-27T07:52:56;99375.56;;;13.90;72.30
42603;BME280;28233;55.748;48.752;2022-09-27T07:54:59;99373.50;;;13.74;72.59
42603;BME280;28233;55.748;48.752;2022-09-27T07:57:01;99369.00;;;13.70;73.41
42603;BME280;28233;55.748;48.752;2022-09-27T07:59:04;99372.09;;;13.68;73.37
42603;BME280;28233;55.748;48.752;2022-09-27T08:01:07;99374.06;;;13.68;73.25
42603;BME280;28233;55.748;48.752;2022-09-27T08:03:14;99382.13;;;13.61;73.06
42603;BME280;28233;55.748;48.752;2022-09-27T08:05:17;99388.34;;;13.58;73.31
42603;BME280;28233;55.748;48.752;2022-09-27T08:07:20;99380.75;;;13.55;73.39
42603;BME280;28233;55.748;48.752;2022-09-27T08:09:23;99376.59;;;13.48;74.13
42603;BME280;28233;55.748;48.752;2022-09-27T08:11:27;99371.31;;;13.43;74.66
42603;BME280;28233;55.748;48.752;2022-09-27T08:13:30;99383.25;;;13.47;74.14
42603;BME280;28233;55.748;48.752;2022-09-27T08:15:33;99375.91;;;13.39;74.13
42603;BME280;28233;55.748;48.752;2022-09-27T08:17:40;99382.59;;;13.38;74.70
42603;BME280;28233;55.748;48.752;2022-09-27T08:19:43;99387.41;;;13.41;74.46
42603;BME280;28233;55.748;48.752;2022-09-27T08:21:46;99378.44;;;13.44;73.61
42603;BME280;28233;55.748;48.752;2022-09-27T08:23:49;99384.66;;;13.41;74.08
42603;BME280;28233;55.748;48.752;2022-09-27T08:25:53;99389.84;;;13.43;74.09
42603;BME280;28233;55.748;48.752;2022-09-27T08:27:58;99379.38;;;13.48;73.34
42603;BME280;28233;55.748;48.752;2022-09-27T08:30:01;99385.13;;;13.56;73.47
42603;BME280;28233;55.748;48.752;2022-09-27T08:32:05;99375.91;;;13.64;72.97
42603;BME280;28233;55.748;48.752;2022-09-27T08:34:08;99389.69;;;13.64;72.51
42603;BME280;28233;55.748;48.752;2022-09-27T08:36:11;99380.75;;;13.67;71.93
42603;BME280;28233;55.748;48.752;2022-09-27T08:38:14;99381.88;;;13.66;71.36
42603;BME280;28233;55.748;48.752;2022-09-27T08:40:17;99387.31;;;13.62;71.76
42603;BME280;28233;55.748;48.752;2022-09-27T08:42:41;99391.91;;;13.58;72.25
42603;BME280;28233;55.748;48.752;2022-09-27T08:45:04;99385.13;;;13.56;72.36
42603;BME280;28233;55.748;48.752;2022-09-27T08:49:53;99394.91;;;13.41;72.89
42603;BME280;28233;55.748;48.752;2022-09-27T08:51:59;99397.41;;;13.34;73.91
42603;BME280;28233;55.748;48.752;2022-09-27T08:54:10;99397.16;;;13.26;74.35
42603;BME280;28233;55.748;48.752;2022-09-27T08:56:16;99409.63;;;13.11;75.24
42603;BME280;28233;55.748;48.752;2022-09-27T09:00:28;99406.59;;;12.92;79.60
42603;BME280;28233;55.748;48.752;2022-09-27T09:02:31;99407.69;;;12.79;81.06
42603;BME280;28233;55.748;48.752;2022-09-27T09:04:37;99409.06;;;12.73;83.11
42603;BME280;28233;55.748;48.752;2022-09-27T09:14:36;99404.56;;;12.68;83.81
42603;BME280;28233;55.748;48.752;2022-09-27T09:26:31;99406.06;;;13.11;84.31
42603;BME280;28233;55.748;48.752;2022-09-27T09:33:33;99412.69;;;13.31;84.37
42603;BME280;28233;55.748;48.752;2022-09-27T09:35:44;99413.19;;;13.45;83.69
42603;BME280;28233;55.748;48.752;2022-09-27T09:37:57;99416.03;;;13.61;83.65
42603;BME280;28233;55.748;48.752;2022-09-27T09:40:13;99417.31;;;13.88;82.91
42603;BME280;28233;55.748;48.752;2022-09-27T09:42:31;99418.44;;;14.12;81.58
42603;BME280;28233;55.748;48.752;2022-09-27T09:44:45;99416.78;;;14.35;80.57
42603;BME280;28233;55.748;48.752;2022-09-27T09:46:52;99415.38;;;14.54;76.98
42603;BME280;28233;55.748;48.752;2022-09-27T09:49:04;99417.56;;;14.61;77.27
42603;BME280;28233;55.748;48.752;2022-09-27T09:51:22;99410.16;;;14.52;77.82
42603;BME280;28233;55.748;48.752;2022-09-27T09:55:58;99413.00;;;14.28;76.03
42603;BME280;28233;55.748;48.752;2022-09-27T10:00:24;99414.28;;;14.06;75.86
42603;BME280;28233;55.748;48.752;2022-09-27T10:02:32;99415.25;;;13.98;75.07
42603;BME280;28233;55.748;48.752;2022-09-27T10:04:35;99426.06;;;13.90;75.80
42603;BME280;28233;55.748;48.752;2022-09-27T10:06:38;99422.38;;;13.86;76.66
42603;BME280;28233;55.748;48.752;2022-09-27T10:08:41;99421.44;;;13.82;77.44
42603;BME280;28233;55.748;48.752;2022-09-27T10:10:44;99417.78;;;13.78;77.45
42603;BME280;28233;55.748;48.752;2022-09-27T10:12:48;99424.34;;;13.73;77.75
42603;BME280;28233;55.748;48.752;2022-09-27T10:14:52;99420.91;;;13.64;77.52
42603;BME280;28233;55.748;48.752;2022-09-27T10:16:58;99424.69;;;13.60;78.34
42603;BME280;28233;55.748;48.752;2022-09-27T10:19:03;99423.84;;;13.47;79.09
42603;BME280;28233;55.748;48.752;2022-09-27T10:21:12;99433.63;;;13.44;80.44
42603;BME280;28233;55.748;48.752;2022-09-27T10:23:20;99432.25;;;13.38;80.37
42603;BME280;28233;55.748;48.752;2022-09-27T10:25:23;99428.06;;;13.20;80.05
42603;BME280;28233;55.748;48.752;2022-09-27T10:27:28;99436.44;;;13.23;80.89
42603;BME280;28233;55.748;48.752;2022-09-27T10:29:39;99432.16;;;13.14;79.97
42603;BME280;28233;55.748;48.752;2022-09-27T10:31:43;99438.13;;;13.03;79.67
42603;BME280;28233;55.748;48.752;2022-09-27T10:34:01;99436.63;;;13.06;80.09
42603;BME280;28233;55.748;48.752;2022-09-27T10:36:22;99443.41;;;13.08;81.29
42603;BME280;28233;55.748;48.752;2022-09-27T10:38:31;99447.91;;;13.13;81.46
42603;BME280;28233;55.748;48.752;2022-09-27T10:40:35;99448.72;;;13.14;82.01
42603;BME280;28233;55.748;48.752;2022-09-27T10:42:38;99441.53;;;13.00;81.72
42603;BME280;28233;55.748;48.752;2022-09-27T10:44:40;99452.94;;;12.99;81.57
42603;BME280;28233;55.748;48.752;2022-09-27T10:46:47;99442.69;;;12.99;81.44
42603;BME280;28233;55.748;48.752;2022-09-27T10:49:30;99439.22;;;12.90;81.61
42603;BME280;28233;55.748;48.752;2022-09-27T10:51:33;99434.88;;;12.68;81.60
42603;BME280;28233;55.748;48.752;2022-09-27T10:53:37;99441.16;;;12.56;82.28
42603;BME280;28233;55.748;48.752;2022-09-27T10:55:48;99446.72;;;12.47;82.26
42603;BME280;28233;55.748;48.752;2022-09-27T10:57:53;99448.53;;;12.43;83.18
42603;BME280;28233;55.748;48.752;2022-09-27T10:59:59;99445.97;;;12.38;82.28
42603;BME280;28233;55.748;48.752;2022-09-27T11:02:23;99452.00;;;12.32;81.97
42603;BME280;28233;55.748;48.752;2022-09-27T11:04:32;99447.66;;;12.31;82.37
42603;BME280;28233;55.748;48.752;2022-09-27T11:06:35;99444.91;;;12.31;82.80
42603;BME280;28233;55.748;48.752;2022-09-27T11:08:39;99455.13;;;12.30;83.30
42603;BME280;28233;55.748;48.752;2022-09-27T11:10:42;99454.78;;;12.32;83.99
42603;BME280;28233;55.748;48.752;2022-09-27T11:12:45;99444.91;;;12.31;84.43
42603;BME280;28233;55.748;48.752;2022-09-27T11:15:00;99447.19;;;12.29;84.75
42603;BME280;28233;55.748;48.752;2022-09-27T11:17:17;99444.44;;;12.29;85.12
42603;BME280;28233;55.748;48.752;2022-09-27T11:21:59;99455.75;;;12.06;85.97
42603;BME280;28233;55.748;48.752;2022-09-27T11:26:35;99457.00;;;11.88;83.94
42603;BME280;28233;55.748;48.752;2022-09-27T11:29:39;99470.47;;;11.72;84.08
42603;BME280;28233;55.748;48.752;2022-09-27T11:34:25;99464.19;;;11.62;84.97
42603;BME280;28233;55.748;48.752;2022-09-27T11:45:09;99475.13;;;11.33;87.29
42603;BME280;28233;55.748;48.752;2022-09-27T11:47:49;99473.06;;;11.30;88.11
42603;BME280;28233;55.748;48.752;2022-09-27T11:53:00;99482.91;;;11.31;89.36
42603;BME280;28233;55.748;48.752;2022-09-27T11:58:30;99488.06;;;11.41;90.12
42603;BME280;28233;55.748;48.752;2022-09-27T12:02:44;99469.13;;;11.39;90.92
42603;BME280;28233;55.748;48.752;2022-09-27T12:09:47;99486.50;;;11.23;91.55
42603;BME280;28233;55.748;48.752;2022-09-27T12:12:02;99478.44;;;11.17;91.92
42603;BME280;28233;55.748;48.752;2022-09-27T12:14:42;99487.31;;;11.14;92.27
42603;BME280;28233;55.748;48.752;2022-09-27T12:16:49;99475.69;;;11.00;92.76
42603;BME280;28233;55.748;48.752;2022-09-27T12:18:54;99482.81;;;11.01;92.75
42603;BME280;28233;55.748;48.752;2022-09-27T12:21:01;99489.13;;;11.02;93.37
42603;BME280;28233;55.748;48.752;2022-09-27T12:23:14;99490.56;;;10.99;93.66
42603;BME280;28233;55.748;48.752;2022-09-27T12:25:19;99490.09;;;10.97;93.79
42603;BME280;28233;55.748;48.752;2022-09-27T12:28:28;99495.28;;;10.98;93.88
42603;BME280;28233;55.748;48.752;2022-09-27T12:30:11;99497.22;;;10.89;93.78
42603;BME280;28233;55.748;48.752;2022-09-27T12:32:33;99502.22;;;10.87;93.91
42603;BME280;28233;55.748;48.752;2022-09-27T12:37:08;99501.44;;;10.87;94.62